Time;durP1;ratioP1;P1;durP2;ratioP2;P2;SDS_P1;SDS_P2;PMS_P1;PMS_P2;Temp;Humidity;BMP_temperature;BMP_pressure;BME280_temperature;BME280_humidity;BME280_pressure;Samples;Min_cycle;Max_cycle;Signal;HPM_P1;HPM_P2
2021/07/23 00:00:09;;;;;;;5.93;4.05;;;17.80;99.90;;;;;;4391762;32;20074;-73
2021/07/23 00:02:35;;;;;;;4.93;3.30;;;17.70;99.90;;;;;;4384092;32;20062;-74
2021/07/23 00:05:01;;;;;;;5.18;3.05;;;17.70;99.90;;;;;;4378324;32;20084;-73
2021/07/23 00:07:28;;;;;;;4.43;3.03;;;17.80;99.90;;;;;;4378778;32;20074;-74
2021/07/23 00:09:54;;;;;;;4.85;2.80;;;17.70;99.90;;;;;;4392547;32;20078;-73
2021/07/23 00:12:20;;;;;;;5.40;3.30;;;17.70;99.90;;;;;;4392468;32;20089;-71
2021/07/23 00:14:46;;;;;;;4.35;3.25;;;17.60;99.90;;;;;;4390788;32;20066;-73
2021/07/23 00:17:12;;;;;;;3.97;2.90;;;17.60;99.90;;;;;;4378459;32;20166;-73
2021/07/23 00:19:38;;;;;;;3.33;2.83;;;17.60;99.90;;;;;;4378948;32;20451;-73
2021/07/23 00:22:05;;;;;;;3.42;2.62;;;17.60;99.90;;;;;;4391004;32;20077;-73
2021/07/23 00:24:31;;;;;;;3.30;2.70;;;17.60;99.90;;;;;;4391337;32;20084;-73
2021/07/23 00:26:57;;;;;;;5.15;3.03;;;17.60;99.90;;;;;;4378612;32;20077;-73
2021/07/23 00:29:23;;;;;;;4.18;3.17;;;17.50;99.90;;;;;;4378192;32;20079;-72
2021/07/23 00:31:50;;;;;;;3.97;3.08;;;17.70;99.90;;;;;;4378047;32;20070;-73
2021/07/23 00:34:16;;;;;;;4.75;2.80;;;17.70;99.90;;;;;;4378263;32;20074;-72
2021/07/23 00:36:42;;;;;;;6.12;3.10;;;17.70;99.90;;;;;;4378571;32;20186;-73
2021/07/23 00:39:08;;;;;;;6.93;3.45;;;17.50;99.90;;;;;;4378217;32;20532;-73
2021/07/23 00:41:34;;;;;;;7.10;3.22;;;17.50;99.90;;;;;;4390617;32;20084;-73
2021/07/23 00:44:00;;;;;;;8.82;3.47;;;17.40;99.90;;;;;;4391138;32;20073;-73
2021/07/23 00:46:31;;;;;;;9.50;3.10;;;17.40;99.90;;;;;;4390448;32;20081;-73
2021/07/23 00:48:58;;;;;;;5.35;3.33;;;17.50;99.90;;;;;;4377927;32;20078;-73
2021/07/23 00:51:24;;;;;;;4.87;3.05;;;17.60;99.90;;;;;;4378337;32;20433;-73
2021/07/23 00:53:51;;;;;;;7.60;3.20;;;17.70;99.90;;;;;;4378190;32;20088;-72
2021/07/23 00:56:17;;;;;;;4.10;2.90;;;17.60;99.90;;;;;;4378024;32;20074;-72
2021/07/23 00:58:43;;;;;;;5.12;3.30;;;17.70;99.90;;;;;;4365886;32;20089;-73
2021/07/23 01:01:09;;;;;;;4.87;2.95;;;17.70;99.90;;;;;;4365423;32;20455;-71
2021/07/23 01:03:38;;;;;;;4.60;3.10;;;17.70;99.90;;;;;;4377705;32;20069;-74
2021/07/23 01:06:04;;;;;;;4.22;2.83;;;17.80;99.90;;;;;;4378099;32;20088;-72
2021/07/23 01:08:31;;;;;;;5.10;3.28;;;17.70;99.90;;;;;;4365779;32;20153;-72
2021/07/23 01:10:57;;;;;;;5.10;3.08;;;17.80;99.90;;;;;;4365969;32;20070;-72
2021/07/23 01:13:23;;;;;;;3.30;2.62;;;17.80;99.90;;;;;;4377648;32;20081;-73
2021/07/23 01:15:49;;;;;;;4.32;3.00;;;17.80;99.90;;;;;;4390152;32;20150;-73
2021/07/23 01:18:15;;;;;;;4.18;3.20;;;17.80;99.90;;;;;;4377523;32;20170;-72
2021/07/23 01:20:43;;;;;;;4.57;3.22;;;17.70;99.90;;;;;;4377999;32;20066;-72
2021/07/23 01:23:09;;;;;;;5.82;3.30;;;17.80;99.90;;;;;;4365869;32;20077;-73
2021/07/23 01:25:35;;;;;;;6.93;3.47;;;17.80;99.90;;;;;;4389867;32;20117;-72
2021/07/23 01:28:02;;;;;;;6.75;3.85;;;17.80;99.90;;;;;;4365696;32;20078;-73
2021/07/23 01:30:29;;;;;;;6.28;3.47;;;17.70;99.90;;;;;;4377632;32;20072;-73
2021/07/23 01:32:55;;;;;;;5.90;3.17;;;17.80;99.90;;;;;;4389903;32;20093;-73
2021/07/23 01:35:21;;;;;;;4.47;3.15;;;17.80;99.90;;;;;;4377652;32;20098;-72
2021/07/23 01:37:48;;;;;;;9.88;3.35;;;17.80;99.90;;;;;;4389976;32;20077;-73
2021/07/23 01:40:15;;;;;;;6.37;3.78;;;17.80;99.90;;;;;;4377869;32;20074;-72
2021/07/23 01:42:42;;;;;;;10.23;4.20;;;17.80;99.90;;;;;;4364799;32;20595;-73
2021/07/23 01:45:09;;;;;;;5.80;3.83;;;17.80;99.90;;;;;;4364753;32;20479;-74
2021/07/23 01:47:35;;;;;;;5.45;3.95;;;17.80;99.90;;;;;;4364938;32;20160;-73
2021/07/23 01:50:01;;;;;;;5.47;3.45;;;17.70;99.90;;;;;;4353148;32;20082;-73
2021/07/23 01:52:29;;;;;;;13.93;4.05;;;17.70;99.90;;;;;;4364772;32;20135;-72
2021/07/23 01:54:55;;;;;;;8.10;3.97;;;17.80;99.90;;;;;;4365652;32;20235;-72
2021/07/23 01:57:21;;;;;;;10.75;4.05;;;17.80;99.90;;;;;;4389995;32;20081;-73
2021/07/23 01:59:48;;;;;;;8.93;4.32;;;17.80;99.90;;;;;;4377764;32;20066;-72
2021/07/23 02:02:14;;;;;;;10.82;4.40;;;17.70;99.90;;;;;;4389522;32;20104;-72
2021/07/23 02:04:40;;;;;;;8.48;3.90;;;17.70;99.90;;;;;;4377851;32;20081;-73
2021/07/23 02:07:06;;;;;;;8.82;3.53;;;17.70;99.90;;;;;;4389740;32;20495;-74
2021/07/23 02:09:32;;;;;;;5.65;3.67;;;17.80;99.90;;;;;;4377753;32;20162;-73
2021/07/23 02:11:58;;;;;;;6.80;3.90;;;17.70;99.90;;;;;;4377412;32;20609;-73
2021/07/23 02:14:28;;;;;;;6.53;3.67;;;17.70;99.90;;;;;;4352492;32;20460;-73
2021/07/23 02:16:56;;;;;;;7.93;4.53;;;17.70;99.90;;;;;;4389730;32;20085;-74
2021/07/23 02:19:23;;;;;;;8.60;3.65;;;17.70;99.90;;;;;;4389862;32;20451;-74
2021/07/23 02:21:49;;;;;;;8.68;3.97;;;17.80;99.90;;;;;;4390999;32;20084;-73
2021/07/23 02:24:15;;;;;;;5.28;3.62;;;17.70;99.90;;;;;;4377038;32;20082;-72
2021/07/23 02:26:41;;;;;;;5.53;3.70;;;17.70;99.90;;;;;;4389443;32;20073;-73
2021/07/23 02:29:07;;;;;;;4.37;3.50;;;17.60;99.90;;;;;;4378548;32;20581;-73
2021/07/23 02:31:34;;;;;;;7.60;4.03;;;17.70;99.90;;;;;;4380034;32;20436;-73
2021/07/23 02:34:00;;;;;;;4.65;3.67;;;17.70;99.90;;;;;;4392251;32;20178;-73
2021/07/23 02:36:26;;;;;;;5.82;3.60;;;17.80;99.90;;;;;;4393066;32;20081;-71
2021/07/23 02:38:52;;;;;;;4.60;3.40;;;17.80;99.90;;;;;;4380189;32;20070;-74
2021/07/23 02:41:18;;;;;;;4.28;3.35;;;17.70;99.90;;;;;;4379149;32;20452;-71
2021/07/23 02:43:48;;;;;;;6.03;3.78;;;17.80;99.90;;;;;;4392784;32;20101;-73
2021/07/23 02:46:14;;;;;;;5.90;3.83;;;17.90;99.90;;;;;;4392497;32;20070;-74
2021/07/23 02:48:40;;;;;;;5.47;3.85;;;18.00;99.90;;;;;;4392262;32;20072;-74
2021/07/23 02:51:06;;;;;;;7.40;4.20;;;18.00;99.90;;;;;;4355367;32;20499;-74
2021/07/23 02:53:33;;;;;;;6.75;4.00;;;17.90;99.90;;;;;;4392334;32;20078;-73
2021/07/23 02:55:59;;;;;;;5.20;4.10;;;18.00;99.90;;;;;;4379690;32;20440;-72
2021/07/23 02:58:25;;;;;;;7.20;4.20;;;17.90;99.90;;;;;;4392158;32;20072;-74
2021/07/23 03:00:51;;;;;;;5.72;3.80;;;17.90;99.90;;;;;;4391807;32;20160;-73
2021/07/23 03:03:17;;;;;;;7.43;4.40;;;18.00;99.90;;;;;;4392152;32;20165;-74
2021/07/23 03:05:43;;;;;;;5.32;3.60;;;18.00;99.90;;;;;;4393645;32;20508;-72
2021/07/23 03:08:10;;;;;;;10.05;4.22;;;18.20;99.90;;;;;;4392468;32;20144;-73
2021/07/23 03:10:36;;;;;;;6.60;4.40;;;18.10;99.90;;;;;;4379833;32;20158;-73
2021/07/23 03:13:02;;;;;;;7.85;4.80;;;18.20;99.90;;;;;;4391902;32;20089;-72
2021/07/23 03:15:28;;;;;;;6.45;4.32;;;18.30;99.90;;;;;;4367181;32;20093;-73
2021/07/23 03:17:54;;;;;;;5.50;3.62;;;18.30;99.90;;;;;;4391726;32;20085;-72
2021/07/23 03:20:21;;;;;;;5.43;3.90;;;18.20;99.90;;;;;;4379310;32;20508;-72
2021/07/23 03:22:47;;;;;;;5.40;2.85;;;18.20;99.90;;;;;;4379422;32;20085;-73
2021/07/23 03:25:13;;;;;;;5.68;3.80;;;18.20;99.90;;;;;;4391995;32;20077;-73
2021/07/23 03:27:39;;;;;;;6.05;3.33;;;18.30;99.90;;;;;;4366385;32;20542;-73
2021/07/23 03:30:07;;;;;;;3.87;3.00;;;18.30;99.90;;;;;;4379495;32;20150;-73
2021/07/23 03:32:33;;;;;;;5.05;3.90;;;18.30;99.90;;;;;;4378906;32;20096;-73
2021/07/23 03:34:59;;;;;;;5.53;3.42;;;18.60;99.90;;;;;;4379281;32;20093;-73
2021/07/23 03:37:25;;;;;;;5.07;3.80;;;18.70;99.90;;;;;;4391911;32;20070;-73
2021/07/23 03:39:51;;;;;;;4.30;3.55;;;18.60;99.90;;;;;;4391581;32;20150;-73
2021/07/23 03:42:18;;;;;;;5.18;3.80;;;18.80;99.90;;;;;;4378662;32;20086;-73
2021/07/23 03:44:46;;;;;;;5.65;3.50;;;18.70;99.90;;;;;;4391413;32;20231;-73
2021/07/23 03:47:13;;;;;;;5.95;3.42;;;18.80;99.90;;;;;;4391465;32;20076;-74
2021/07/23 03:49:40;;;;;;;4.40;3.33;;;18.90;99.90;;;;;;4367373;32;20085;-73
2021/07/23 03:52:06;;;;;;;5.10;3.40;;;18.90;99.90;;;;;;4379100;32;20067;-73
2021/07/23 03:54:32;;;;;;;4.37;2.87;;;19.10;99.90;;;;;;4393149;32;20604;-72
2021/07/23 03:56:58;;;;;;;3.40;2.28;;;19.30;99.90;;;;;;4391139;32;20146;-73
2021/07/23 03:59:24;;;;;;;5.97;3.67;;;19.10;99.90;;;;;;4378790;32;20073;-73
2021/07/23 04:01:51;;;;;;;4.20;3.12;;;19.10;99.90;;;;;;4391606;32;20070;-73
2021/07/23 04:04:17;;;;;;;4.12;3.33;;;19.10;99.90;;;;;;4378809;32;20553;-73
2021/07/23 04:06:43;;;;;;;5.05;3.72;;;19.20;99.90;;;;;;4392416;32;20159;-73
2021/07/23 04:09:09;;;;;;;4.80;3.42;;;19.60;99.90;;;;;;4391196;32;20081;-72
2021/07/23 04:11:45;;;;;;;5.45;4.00;;;19.70;99.90;;;;;;4379174;32;20173;-73
2021/07/23 04:14:12;;;;;;;5.70;4.03;;;19.50;99.90;;;;;;4391499;32;20098;-72
2021/07/23 04:16:38;;;;;;;6.45;4.25;;;19.60;99.90;;;;;;4378555;32;20602;-73
2021/07/23 04:19:04;;;;;;;5.47;3.90;;;19.40;99.90;;;;;;4391223;32;20057;-72
2021/07/23 04:21:31;;;;;;;4.12;3.05;;;19.70;99.90;;;;;;4378359;32;20075;-73
2021/07/23 04:23:59;;;;;;;2.28;2.03;;;20.00;99.90;;;;;;4366458;32;20082;-72
2021/07/23 04:26:25;;;;;;;4.97;3.40;;;20.00;99.90;;;;;;4390851;32;20163;-71
2021/07/23 04:28:51;;;;;;;6.78;4.22;;;19.80;99.90;;;;;;4391233;32;20129;-73
2021/07/23 04:31:17;;;;;;;4.93;4.00;;;19.90;99.90;;;;;;4378284;32;20089;-73
2021/07/23 04:33:43;;;;;;;6.45;3.83;;;20.10;99.90;;;;;;4391093;32;20093;-74
2021/07/23 04:36:10;;;;;;;3.97;2.65;;;20.10;99.90;;;;;;4378405;32;20167;-73
2021/07/23 04:38:36;;;;;;;4.40;3.78;;;20.30;99.90;;;;;;4390745;32;20069;-73
2021/07/23 04:41:03;;;;;;;6.05;3.47;;;20.70;99.90;;;;;;4378245;32;20155;-73
2021/07/23 04:43:35;;;;;;;4.93;3.80;;;22.40;99.90;;;;;;4378079;32;20078;-72
2021/07/23 04:46:01;;;;;;;4.80;3.40;;;23.80;99.90;;;;;;4380752;32;20166;-73
2021/07/23 04:48:27;;;;;;;5.00;3.62;;;23.00;99.90;;;;;;4392278;32;20160;-74
2021/07/23 04:50:53;;;;;;;5.68;4.00;;;23.30;99.90;;;;;;4378141;32;20147;-73
2021/07/23 04:53:20;;;;;;;5.87;3.50;;;22.40;99.90;;;;;;4390519;32;20077;-72
2021/07/23 04:55:50;;;;;;;5.25;3.95;;;23.20;99.90;;;;;;4377733;32;20169;-73
2021/07/23 04:58:16;;;;;;;5.12;3.58;;;24.60;99.90;;;;;;4377550;32;20499;-73
2021/07/23 05:00:45;;;;;;;5.15;3.85;;;22.90;99.90;;;;;;4390682;32;20084;-73
2021/07/23 05:03:11;;;;;;;5.95;3.47;;;22.70;99.90;;;;;;4365799;32;20085;-73
2021/07/23 05:05:40;;;;;;;9.95;4.00;;;23.20;99.90;;;;;;4378056;32;20103;-73
2021/07/23 05:08:06;;;;;;;9.50;3.90;;;23.90;99.90;;;;;;4390543;32;20081;-73
2021/07/23 05:10:32;;;;;;;4.87;3.33;;;24.90;99.90;;;;;;4377748;32;20073;-72
2021/07/23 05:12:58;;;;;;;4.47;3.60;;;25.30;99.90;;;;;;4377777;32;20066;-73
2021/07/23 05:15:25;;;;;;;7.22;3.05;;;24.00;99.90;;;;;;4377984;32;20173;-73
2021/07/23 05:17:51;;;;;;;4.50;3.62;;;25.00;99.90;;;;;;4366139;32;20151;-73
2021/07/23 05:20:17;;;;;;;3.55;2.85;;;25.80;99.90;;;;;;4377852;32;20086;-73
2021/07/23 05:22:43;;;;;;;4.87;3.45;;;25.20;99.90;;;;;;4389741;32;20074;-73
2021/07/23 05:25:11;;;;;;;6.87;3.55;;;25.20;99.90;;;;;;4390024;32;20062;-73
2021/07/23 05:27:37;;;;;;;4.35;3.55;;;23.50;99.90;;;;;;4365069;32;20526;-72
2021/07/23 05:30:04;;;;;;;6.05;3.42;;;22.80;99.90;;;;;;4387439;32;21587;-70
2021/07/23 05:32:31;;;;;;;7.18;3.72;;;22.60;99.90;;;;;;4356067;32;20535;-75
2021/07/23 05:34:57;;;;;;;6.70;3.80;;;24.70;99.90;;;;;;4377224;32;20078;-79
2021/07/23 05:37:23;;;;;;;6.93;4.07;;;24.40;99.90;;;;;;4386470;32;20115;-79
2021/07/23 05:39:49;;;;;;;4.80;3.25;;;25.80;99.90;;;;;;4386505;32;20090;-76
2021/07/23 05:42:15;;;;;;;6.15;3.80;;;24.70;99.90;;;;;;4374720;32;20183;-77
2021/07/23 05:44:42;;;;;;;4.03;3.20;;;24.30;99.90;;;;;;4389762;32;20092;-76
2021/07/23 05:47:08;;;;;;;6.43;3.33;;;23.90;99.90;;;;;;4389485;32;20176;-75
2021/07/23 05:49:34;;;;;;;5.30;3.50;;;24.00;99.90;;;;;;4377739;32;20092;-79
2021/07/23 05:52:00;;;;;;;6.05;3.20;;;24.90;99.80;;;;;;4389910;32;20085;-77
2021/07/23 05:54:26;;;;;;;6.95;3.53;;;24.60;99.90;;;;;;4389348;32;20557;-76
2021/07/23 05:56:53;;;;;;;8.30;3.62;;;23.60;99.90;;;;;;4389990;32;20142;-76
2021/07/23 05:59:20;;;;;;;6.70;3.53;;;23.20;99.90;;;;;;4376345;32;20124;-75
2021/07/23 06:01:46;;;;;;;5.18;3.25;;;22.80;99.90;;;;;;4377047;32;20082;-79
2021/07/23 06:04:12;;;;;;;6.57;3.03;;;24.80;99.90;;;;;;4391000;32;20162;-80
2021/07/23 06:06:38;;;;;;;13.18;3.92;;;23.00;99.90;;;;;;4380246;32;20086;-81
2021/07/23 06:09:04;;;;;;;4.75;3.45;;;23.40;99.90;;;;;;4393276;32;20081;-81
2021/07/23 06:11:30;;;;;;;5.70;3.42;;;23.70;99.90;;;;;;4392494;32;20596;-78
2021/07/23 06:13:57;;;;;;;6.00;3.22;;;23.00;99.90;;;;;;4380232;32;20086;-79
2021/07/23 06:16:23;;;;;;;4.47;3.47;;;23.30;99.90;;;;;;4392662;32;20199;-82
2021/07/23 06:18:49;;;;;;;5.47;3.12;;;22.90;99.90;;;;;;4392733;32;20520;-82
2021/07/23 06:21:15;;;;;;;5.70;3.60;;;24.30;96.80;;;;;;4378013;32;20149;-80
2021/07/23 06:23:41;;;;;;;4.50;3.50;;;23.70;97.80;;;;;;4376096;32;20171;-82
2021/07/23 06:26:08;;;;;;;5.60;3.53;;;23.60;94.70;;;;;;4365325;32;20153;-75
2021/07/23 06:28:34;;;;;;;4.65;3.12;;;24.20;92.70;;;;;;4364785;32;20509;-74
2021/07/23 06:31:04;;;;;;;4.70;2.85;;;24.20;93.60;;;;;;4352414;32;20077;-71
2021/07/23 06:33:31;;;;;;;4.50;3.30;;;23.50;95.40;;;;;;4353990;32;20171;-77
2021/07/23 06:35:57;;;;;;;4.40;3.12;;;23.00;99.70;;;;;;4366565;32;20570;-77
2021/07/23 06:38:23;;;;;;;4.53;3.20;;;23.00;93.50;;;;;;4372129;32;20069;-72
2021/07/23 06:40:49;;;;;;;5.03;3.17;;;23.00;92.50;;;;;;4379128;32;20094;-72
2021/07/23 06:43:16;;;;;;;5.35;3.47;;;22.70;94.30;;;;;;4361774;32;20169;-72
2021/07/23 06:45:42;;;;;;;3.20;2.60;;;22.50;96.00;;;;;;4360245;32;20121;-74
2021/07/23 06:48:08;;;;;;;6.82;2.97;;;23.70;94.60;;;;;;4377053;32;20062;-71
2021/07/23 06:50:34;;;;;;;4.80;3.35;;;23.70;93.50;;;;;;4378832;32;20192;-72
2021/07/23 06:53:03;;;;;;;6.12;3.10;;;23.10;97.40;;;;;;4373998;32;20447;-73
2021/07/23 06:55:30;;;;;;;4.07;3.10;;;23.30;99.80;;;;;;4385829;32;20113;-74
2021/07/23 06:57:59;;;;;;;5.55;3.10;;;22.40;95.80;;;;;;4377892;32;20161;-76
2021/07/23 07:00:25;;;;;;;6.22;3.30;;;22.30;98.20;;;;;;4342841;32;20078;-73
2021/07/23 07:02:51;;;;;;;7.07;3.40;;;22.60;97.20;;;;;;4352909;32;20069;-73
2021/07/23 07:05:18;;;;;;;5.28;2.78;;;22.80;94.60;;;;;;4376658;32;20077;-75
2021/07/23 07:07:44;;;;;;;3.83;3.10;;;23.40;90.90;;;;;;4363805;32;20169;-71
2021/07/23 07:10:11;;;;;;;3.95;3.12;;;24.60;78.10;;;;;;4388470;32;20073;-72
2021/07/23 07:12:37;;;;;;;6.40;3.00;;;23.90;84.20;;;;;;4363641;32;20101;-72
2021/07/23 07:15:04;;;;;;;3.55;3.00;;;22.60;96.20;;;;;;4359462;32;20073;-72
2021/07/23 07:17:30;;;;;;;4.20;3.08;;;22.20;99.90;;;;;;4377520;32;20199;-74
2021/07/23 07:20:00;;;;;;;6.37;3.10;;;22.20;99.90;;;;;;4342942;32;20071;-70
2021/07/23 07:22:26;;;;;;;6.15;3.20;;;22.60;98.60;;;;;;4388540;32;20093;-74
2021/07/23 07:24:53;;;;;;;3.47;2.70;;;22.80;94.30;;;;;;4355763;32;20538;-71
2021/07/23 07:27:20;;;;;;;7.68;3.10;;;22.30;91.80;;;;;;4371787;32;20097;-71
2021/07/23 07:29:46;;;;;;;4.10;3.20;;;22.20;93.60;;;;;;4347122;32;20089;-73
2021/07/23 07:32:12;;;;;;;4.05;2.78;;;22.30;94.70;;;;;;4366375;32;20066;-73
2021/07/23 07:34:39;;;;;;;3.90;2.97;;;22.80;89.00;;;;;;4388232;32;20171;-72
2021/07/23 07:37:05;;;;;;;6.65;3.20;;;23.40;87.00;;;;;;4351559;32;20148;-73
2021/07/23 07:39:32;;;;;;;3.42;2.95;;;23.20;87.00;;;;;;4359043;32;20066;-73
2021/07/23 07:42:00;;;;;;;3.87;2.83;;;23.30;82.00;;;;;;4371442;32;20578;-70
2021/07/23 07:44:26;;;;;;;3.15;2.60;;;23.40;82.50;;;;;;4375981;32;20145;-71
2021/07/23 07:46:52;;;;;;;3.25;2.58;;;23.20;81.60;;;;;;4351576;32;20081;-74
2021/07/23 07:49:21;;;;;;;5.03;3.00;;;23.30;75.60;;;;;;4382721;32;20145;-73
2021/07/23 07:51:47;;;;;;;4.87;2.87;;;23.20;67.80;;;;;;4378001;32;20097;-70
2021/07/23 07:54:14;;;;;;;4.75;2.80;;;23.10;67.70;;;;;;4377826;32;20082;-72
2021/07/23 07:56:40;;;;;;;5.47;2.65;;;23.40;68.10;;;;;;4375346;32;20098;-74
2021/07/23 07:59:08;;;;;;;5.12;2.87;;;24.20;65.90;;;;;;4368871;32;20074;-73
2021/07/23 08:01:34;;;;;;;5.37;2.95;;;23.70;67.50;;;;;;4357730;32;20158;-73
2021/07/23 08:54:44;;;;;;;4.40;2.97;;;24.90;61.00;;;;;;3811060;37;20063;-71
2021/07/23 08:57:11;;;;;;;4.25;2.70;;;23.80;68.70;;;;;;4363089;32;20150;-72
2021/07/23 08:59:37;;;;;;;3.97;2.70;;;23.60;63.20;;;;;;4347656;32;20133;-72
2021/07/23 09:02:05;;;;;;;4.80;2.70;;;24.30;61.40;;;;;;4326791;32;20084;-73
2021/07/23 09:04:38;;;;;;;4.15;3.03;;;23.60;60.80;;;;;;4359752;32;20088;-71
2021/07/23 09:07:25;;;;;;;4.97;2.90;;;24.00;60.70;;;;;;4371807;32;20100;-71
2021/07/23 09:10:06;;;;;;;4.37;2.50;;;23.90;58.90;;;;;;4381908;32;20074;-72
2021/07/23 09:12:50;;;;;;;4.18;2.47;;;24.30;54.90;;;;;;4376574;32;20499;-70
2021/07/23 09:15:18;;;;;;;3.53;2.42;;;24.70;51.40;;;;;;4363195;32;20062;-71
2021/07/23 09:17:44;;;;;;;6.72;2.92;;;24.30;56.00;;;;;;4387690;32;20157;-72
2021/07/23 09:20:11;;;;;;;5.22;2.47;;;24.00;58.00;;;;;;4375065;32;20077;-71
2021/07/23 09:23:08;;;;;;;3.35;2.70;;;24.20;57.80;;;;;;4361802;32;20097;-71
2021/07/23 09:25:41;;;;;;;5.03;3.03;;;24.40;57.00;;;;;;4387532;32;20085;-71
2021/07/23 09:28:37;;;;;;;3.58;2.50;;;23.70;60.40;;;;;;4375165;32;20089;-72
2021/07/23 09:31:08;;;;;;;9.60;2.60;;;24.20;55.30;;;;;;4353011;32;20065;-72
2021/07/23 09:33:40;;;;;;;3.62;2.42;;;24.30;54.20;;;;;;4350554;32;20173;-73
2021/07/23 09:36:10;;;;;;;4.55;2.70;;;24.30;50.40;;;;;;4363627;32;20066;-72
2021/07/23 09:38:45;;;;;;;3.58;2.90;;;24.10;50.40;;;;;;4387355;32;20082;-76
2021/07/23 09:41:32;;;;;;;4.97;3.42;;;24.70;50.40;;;;;;4366320;32;20600;-72
2021/07/23 09:44:08;;;;;;;3.37;2.60;;;24.70;52.00;;;;;;4347679;32;20074;-72
2021/07/23 09:46:35;;;;;;;;;;;24.70;54.40;;;;;;4357742;32;20067;-72
2021/07/23 09:49:23;;;;;;;4.55;2.72;;;24.10;55.30;;;;;;4345222;32;20052;-72
2021/07/23 09:51:49;;;;;;;7.28;2.90;;;25.00;53.50;;;;;;4345180;32;20235;-70
2021/07/23 09:54:18;;;;;;;5.03;2.92;;;25.00;51.80;;;;;;4320702;32;20125;-71
2021/07/23 09:56:45;;;;;;;3.67;2.95;;;25.30;51.90;;;;;;4352274;32;20101;-70
2021/07/23 09:59:44;;;;;;;5.30;2.47;;;25.10;50.10;;;;;;4345733;32;20094;-71
2021/07/23 10:02:17;;;;;;;4.07;2.87;;;24.00;52.50;;;;;;4358105;32;20070;-70
2021/07/23 10:05:07;;;;;;;6.53;2.70;;;24.60;52.30;;;;;;4330207;32;20077;-72
2021/07/23 10:07:59;;;;;;;4.25;2.30;;;24.50;49.90;;;;;;4337839;32;20066;-71
2021/07/23 10:10:25;;;;;;;3.15;2.53;;;24.70;50.70;;;;;;4353327;32;20078;-72
2021/07/23 10:12:51;;;;;;;4.45;2.97;;;24.70;48.60;;;;;;4326896;33;20083;-75
2021/07/23 10:15:19;;;;;;;4.18;3.00;;;24.70;51.00;;;;;;4335189;32;20498;-72
2021/07/23 10:17:46;;;;;;;3.97;2.80;;;24.60;51.00;;;;;;4357945;32;20160;-72
2021/07/23 10:20:13;;;;;;;3.80;2.58;;;25.00;50.30;;;;;;4334361;33;20094;-72
2021/07/23 10:22:40;;;;;;;4.80;2.80;;;25.10;52.50;;;;;;4355798;32;20151;-73
2021/07/23 10:25:07;;;;;;;4.85;2.87;;;26.00;48.40;;;;;;4349177;32;20085;-66
2021/07/23 10:27:33;;;;;;;5.07;3.10;;;24.90;50.00;;;;;;4338564;32;20193;-67
2021/07/23 10:30:00;;;;;;;5.07;2.92;;;24.30;54.10;;;;;;4336055;32;20064;-69
2021/07/23 10:32:34;;;;;;;4.30;2.97;;;24.50;54.60;;;;;;4346446;33;20083;-68
2021/07/23 10:35:15;;;;;;;3.50;2.80;;;24.60;55.00;;;;;;4346224;33;20566;-74
2021/07/23 10:37:52;;;;;;;4.72;2.67;;;24.90;53.80;;;;;;4350168;32;20225;-73
2021/07/23 10:40:20;;;;;;;7.22;3.25;;;25.50;49.00;;;;;;4343475;33;20190;-72
2021/07/23 10:42:47;;;;;;;4.18;2.90;;;24.70;51.20;;;;;;4336322;33;20071;-72
2021/07/23 10:45:24;;;;;;;6.32;3.08;;;24.30;50.40;;;;;;4328577;33;20519;-72
2021/07/23 10:47:51;;;;;;;4.05;2.67;;;24.30;52.00;;;;;;4335750;33;20180;-72
2021/07/23 10:50:26;;;;;;;5.28;2.95;;;24.60;52.00;;;;;;4338266;33;20111;-73
2021/07/23 10:52:53;;;;;;;3.97;2.65;;;24.60;52.00;;;;;;4358774;32;20082;-73
2021/07/23 10:55:27;;;;;;;4.40;2.70;;;24.80;51.30;;;;;;4332699;32;20071;-72
2021/07/23 10:58:08;;;;;;;3.30;2.65;;;24.60;49.30;;;;;;4344500;33;20091;-72
2021/07/23 11:00:48;;;;;;;5.68;2.95;;;25.30;47.90;;;;;;4349173;32;20167;-72
2021/07/23 11:03:42;;;;;;;3.35;2.60;;;24.20;49.20;;;;;;4348324;32;20176;-72
2021/07/23 11:06:29;;;;;;;6.15;3.05;;;24.30;48.20;;;;;;4356664;32;20130;-72
2021/07/23 11:09:07;;;;;;;3.60;2.62;;;24.70;47.50;;;;;;4337825;32;20462;-70
2021/07/23 11:11:33;;;;;;;3.58;2.60;;;24.90;46.20;;;;;;4347723;32;20074;-72
2021/07/23 11:14:16;;;;;;;6.15;2.35;;;24.40;47.50;;;;;;4348025;32;20070;-73
2021/07/23 11:16:42;;;;;;;3.30;2.47;;;24.20;48.20;;;;;;4327569;33;20074;-74
2021/07/23 11:19:15;;;;;;;4.57;2.60;;;24.60;46.70;;;;;;4336410;33;20169;-70
2021/07/23 11:21:42;;;;;;;6.30;2.40;;;25.70;44.30;;;;;;4345573;33;20090;-73
2021/07/23 11:24:12;;;;;;;4.82;2.62;;;26.30;41.50;;;;;;4348061;32;20139;-72
2021/07/23 11:26:50;;;;;;;3.78;2.33;;;25.70;41.20;;;;;;4335597;32;20450;-70
2021/07/23 11:29:33;;;;;;;3.35;2.60;;;25.50;41.40;;;;;;4333887;32;20125;-72
2021/07/23 11:32:18;;;;;;;3.90;2.50;;;25.20;42.90;;;;;;4322573;32;20504;-70
2021/07/23 11:34:44;;;;;;;3.58;2.55;;;25.50;42.20;;;;;;4333564;32;20519;-71
2021/07/23 11:37:25;;;;;;;5.22;2.47;;;24.80;43.80;;;;;;4356081;32;20094;-71
2021/07/23 11:40:03;;;;;;;4.03;3.17;;;25.00;45.10;;;;;;4322423;32;20078;-76
2021/07/23 11:42:35;;;;;;;4.95;2.97;;;24.70;46.10;;;;;;4341091;32;20093;-69
2021/07/23 11:45:02;;;;;;;4.00;3.03;;;25.00;46.10;;;;;;4336100;32;20067;-70
2021/07/23 11:47:43;;;;;;;4.47;2.90;;;24.10;47.80;;;;;;4351044;32;20070;-64
2021/07/23 11:50:16;;;;;;;5.65;3.00;;;25.10;45.50;;;;;;4323133;32;20129;-65
2021/07/23 11:52:43;;;;;;;4.28;3.10;;;24.50;46.00;;;;;;4357078;32;20472;-66
2021/07/23 11:55:11;;;;;;;6.12;3.35;;;24.60;46.00;;;;;;4332942;32;20165;-69
2021/07/23 11:57:42;;;;;;;4.55;3.00;;;24.80;44.40;;;;;;4347751;32;20070;-65
2021/07/23 12:00:17;;;;;;;4.45;3.00;;;24.50;45.90;;;;;;4336132;32;20086;-64
2021/07/23 12:02:44;;;;;;;6.50;3.00;;;25.80;43.70;;;;;;4335118;32;20070;-70
2021/07/23 12:05:12;;;;;;;4.53;2.62;;;26.10;42.10;;;;;;4347425;32;20086;-68
2021/07/23 12:07:39;;;;;;;5.18;2.83;;;26.10;40.10;;;;;;4320342;32;20074;-66
2021/07/23 12:10:11;;;;;;;4.35;2.62;;;25.80;42.40;;;;;;4337745;32;20561;-66
2021/07/23 12:12:37;;;;;;;3.87;2.70;;;25.50;40.80;;;;;;4336124;32;20070;-64
2021/07/23 12:15:12;;;;;;;3.70;2.90;;;25.70;40.40;;;;;;4336315;33;20092;-67
2021/07/23 12:17:45;;;;;;;5.18;2.92;;;25.80;42.00;;;;;;4345662;32;20095;-65
2021/07/23 12:20:13;;;;;;;4.55;2.97;;;26.10;40.50;;;;;;4334963;32;20230;-68
2021/07/23 12:22:39;;;;;;;3.42;2.83;;;24.80;41.40;;;;;;4338374;33;20079;-64
2021/07/23 12:25:19;;;;;;;4.37;2.85;;;24.30;42.90;;;;;;4321262;32;20086;-69
2021/07/23 12:27:46;;;;;;;3.50;2.80;;;24.60;42.40;;;;;;4332808;33;20078;-68
2021/07/23 12:30:12;;;;;;;5.78;2.75;;;25.20;41.40;;;;;;4344477;33;20058;-66
2021/07/23 12:32:39;;;;;;;5.05;2.87;;;25.20;40.90;;;;;;4320537;33;20582;-69
2021/07/23 12:35:06;;;;;;;3.92;2.87;;;24.90;41.00;;;;;;4344343;33;20075;-67
2021/07/23 12:37:32;;;;;;;3.12;2.37;;;25.30;40.50;;;;;;4340543;32;20497;-62
2021/07/23 12:40:01;;;;;;;3.53;2.45;;;25.70;38.70;;;;;;4339510;33;20079;-65
2021/07/23 12:42:28;;;;;;;6.30;3.15;;;26.00;38.60;;;;;;4313290;33;20570;-66
2021/07/23 12:44:55;;;;;;;5.70;3.10;;;25.20;41.00;;;;;;4342369;32;20074;-65
2021/07/23 12:47:23;;;;;;;4.57;3.00;;;25.20;40.80;;;;;;4330851;32;20457;-68
2021/07/23 12:49:51;;;;;;;3.65;2.60;;;25.00;41.30;;;;;;4343732;33;20073;-71
2021/07/23 12:52:17;;;;;;;3.42;2.72;;;24.90;38.90;;;;;;4338829;32;20154;-70
2021/07/23 12:54:50;;;;;;;7.70;2.78;;;25.40;40.40;;;;;;4346736;32;20520;-70
2021/07/23 12:57:24;;;;;;;3.25;2.40;;;26.70;38.60;;;;;;4330141;32;20075;-67
2021/07/23 12:59:51;;;;;;;4.45;2.60;;;25.70;36.00;;;;;;4321104;32;20078;-69
2021/07/23 13:02:19;;;;;;;5.00;2.42;;;25.40;38.30;;;;;;4343008;33;20071;-67
2021/07/23 13:04:45;;;;;;;4.20;2.80;;;26.00;37.40;;;;;;4339140;32;20440;-72
2021/07/23 13:07:12;;;;;;;5.25;2.97;;;25.40;37.20;;;;;;4337560;33;20082;-72
2021/07/23 13:09:45;;;;;;;4.43;2.58;;;25.60;37.10;;;;;;4356705;32;20156;-64
2021/07/23 13:12:12;;;;;;;5.62;3.35;;;26.00;38.40;;;;;;4341137;33;20153;-66
2021/07/23 13:14:39;;;;;;;7.18;3.17;;;25.40;38.60;;;;;;4350653;32;20086;-65
2021/07/23 13:17:06;;;;;;;4.60;3.30;;;25.30;38.90;;;;;;4326108;32;20102;-67
2021/07/23 13:19:33;;;;;;;5.80;2.62;;;25.00;39.50;;;;;;4319862;32;20073;-65
2021/07/23 13:22:01;;;;;;;4.90;2.97;;;24.80;39.30;;;;;;4334082;32;20078;-70
2021/07/23 13:24:28;;;;;;;5.15;2.78;;;25.00;39.80;;;;;;4330028;33;20075;-67
2021/07/23 13:26:55;;;;;;;3.72;2.58;;;24.90;39.40;;;;;;4324282;33;20465;-67
2021/07/23 13:29:24;;;;;;;4.78;3.03;;;25.40;36.40;;;;;;4334310;32;20517;-69
2021/07/23 13:31:51;;;;;;;3.55;2.90;;;25.30;37.40;;;;;;4334758;32;20091;-66
2021/07/23 13:34:21;;;;;;;4.50;2.47;;;24.90;38.60;;;;;;4333423;32;20170;-70
2021/07/23 13:37:07;;;;;;;2.90;2.60;;;24.70;38.40;;;;;;4327625;33;20064;-73
2021/07/23 13:39:38;;;;;;;4.03;2.60;;;24.90;38.90;;;;;;4338533;32;20079;-71
2021/07/23 13:42:08;;;;;;;3.33;2.62;;;25.00;38.10;;;;;;4349622;32;20059;-65
2021/07/23 13:44:34;;;;;;;4.82;2.47;;;24.60;37.50;;;;;;4325203;32;20092;-66